This is the latest recevied weather packets stored in our database for station/object K4CRS-13. If no packets are shown the sender has not sent any weather packets the latest 10 day(s).
| Time | Temp. | Humidity | Pressure | Rain* | Wind** | Luminosity | Snow |
|---|---|---|---|---|---|---|---|
| 1777707530 | 11.67° C | 60% | 1049.9 hPa | 0 mm | - | 0 W/m² | - |
| 1777707227 | 12.22° C | 60% | 1049.8 hPa | 0 mm | - | 0 W/m² | - |
| 1777706925 | 12.22° C | 60% | 1049.7 hPa | 0 mm | - | 0 W/m² | - |
| 1777706622 | 12.22° C | 60% | 1049.6 hPa | 0 mm | - | 0 W/m² | - |
| 1777706320 | 12.22° C | 61% | 1049.8 hPa | 0 mm | - | 0 W/m² | - |
| 1777706017 | 12.22° C | 61% | 1050 hPa | 0 mm | - | 0 W/m² | - |
| 1777705715 | 12.22° C | 59% | 1049.5 hPa | 0 mm | - | 0 W/m² | - |
| 1777705413 | 12.22° C | 62% | 1049.9 hPa | 0 mm | - | 0 W/m² | - |
| 1777705111 | 12.22° C | 60% | 1050 hPa | 0 mm | - | 0 W/m² | - |
| 1777704809 | 12.22° C | 60% | 1050.1 hPa | 0 mm | - | 0 W/m² | - |
| 1777704507 | 12.22° C | 61% | 1050.5 hPa | 0 mm | - | 0 W/m² | - |
| 1777704205 | 12.22° C | 61% | 1050.4 hPa | 0 mm | - | 0 W/m² | - |
| 1777703902 | 12.22° C | 63% | 1050.6 hPa | 0 mm | - | 0 W/m² | - |
| 1777703600 | 12.22° C | 63% | 1050.6 hPa | 0 mm | - | 0 W/m² | - |
| 1777703296 | 12.22° C | 63% | 1050.7 hPa | 0 mm | - | 0 W/m² | - |
| 1777702994 | 12.22° C | 63% | 1050.8 hPa | 0 mm | - | 0 W/m² | - |
| 1777702693 | 12.22° C | 64% | 1051.1 hPa | 0 mm | - | 0 W/m² | - |
| 1777702390 | 12.22° C | 63% | 1051.1 hPa | 0 mm | - | 0 W/m² | - |
| 1777702085 | 12.22° C | 63% | 1051 hPa | 0 mm | - | 0 W/m² | - |
| 1777701781 | 12.22° C | 63% | 1051 hPa | 0 mm | - | 0 W/m² | - |
| 1777701479 | 12.22° C | 63% | 1051.1 hPa | 0 mm | - | 0 W/m² | - |
| 1777701176 | 12.22° C | 62% | 1050.9 hPa | 0 mm | - | 0 W/m² | - |
| 1777700875 | 12.22° C | 63% | 1050.9 hPa | 0 mm | - | 0 W/m² | - |
| 1777700573 | 12.22° C | 63% | 1050.8 hPa | 0 mm | - | 0 W/m² | - |
| 1777700270 | 12.22° C | 64% | 1050.6 hPa | 0 mm | - | 0 W/m² | - |
* Rain latest hour (hover to see other rain measurements)
** Current wind speed in m/s (hover to see current wind gust speed)